createdAt,value
2018-06-03T00:00:33.168Z,38.80
2018-06-03T00:01:37.388Z,38.60
2018-06-03T00:02:41.616Z,38.73
2018-06-03T00:03:45.844Z,37.58
2018-06-03T00:04:50.108Z,36.73
2018-06-03T00:05:54.292Z,38.63
2018-06-03T00:06:58.516Z,42.60
2018-06-03T00:08:02.775Z,37.58
2018-06-03T00:09:07.192Z,38.58
2018-06-03T00:10:11.440Z,40.25
2018-06-03T00:11:15.667Z,41.68
2018-06-03T00:12:19.948Z,42.48
2018-06-03T00:13:24.180Z,40.88
2018-06-03T00:14:28.383Z,44.60
2018-06-03T00:15:32.904Z,39.25
2018-06-03T00:16:37.059Z,44.13
2018-06-03T00:17:41.533Z,51.05
2018-06-03T00:18:45.753Z,40.80
2018-06-03T00:19:50.493Z,40.15
2018-06-03T00:21:05.864Z,42.43
2018-06-03T00:22:15.471Z,41.98
2018-06-03T00:23:19.966Z,42.38
2018-06-03T00:24:24.259Z,45.45
2018-06-03T00:25:28.517Z,43.78
2018-06-03T00:26:32.768Z,48.55
2018-06-03T00:27:37.056Z,44.73
2018-06-03T00:28:41.278Z,45.15
2018-06-03T00:29:45.463Z,44.98
2018-06-03T00:30:50.111Z,49.42
2018-06-03T00:31:54.345Z,47.27
2018-06-03T00:32:58.560Z,45.38
2018-06-03T00:34:02.982Z,44.27
2018-06-03T00:35:07.183Z,42.78
2018-06-03T00:36:23.647Z,49.55
2018-06-03T00:37:27.902Z,43.92
2018-06-03T00:38:32.078Z,42.20
2018-06-03T00:39:36.319Z,44.27
2018-06-03T00:40:40.494Z,40.55
2018-06-03T00:41:44.784Z,41.45
2018-06-03T00:42:48.947Z,37.45
2018-06-03T00:43:53.141Z,38.60
2018-06-03T00:44:57.319Z,40.73
2018-06-03T00:46:02.283Z,43.42
2018-06-03T00:47:06.587Z,40.45
2018-06-03T00:48:10.796Z,40.55
2018-06-03T00:49:14.996Z,39.05
2018-06-03T00:50:19.220Z,41.77
2018-06-03T00:51:23.391Z,45.30
2018-06-03T00:52:27.560Z,42.53
2018-06-03T00:53:31.743Z,41.08
2018-06-03T00:54:35.928Z,47.08
2018-06-03T00:55:40.629Z,41.75
2018-06-03T00:56:55.973Z,45.20
2018-06-03T00:58:00.140Z,45.15
2018-06-03T00:59:04.713Z,47.17
2018-06-03T01:00:09.175Z,50.80
2018-06-03T01:01:13.375Z,45.60
2018-06-03T01:02:17.563Z,41.98
2018-06-03T01:03:21.768Z,44.45
2018-06-03T01:04:25.999Z,49.20
2018-06-03T01:05:30.196Z,43.10
2018-06-03T01:06:34.496Z,49.05
2018-06-03T01:07:38.717Z,45.75
2018-06-03T01:08:42.948Z,44.50
2018-06-03T01:09:47.211Z,45.70
2018-06-03T01:10:51.427Z,43.30
2018-06-03T01:11:55.664Z,43.15
2018-06-03T01:12:59.886Z,52.45
2018-06-03T01:14:04.393Z,44.98
2018-06-03T01:15:08.763Z,50.48
2018-06-03T01:16:12.977Z,50.25
2018-06-03T01:17:17.228Z,45.50
2018-06-03T01:18:21.432Z,44.60
2018-06-03T01:19:25.617Z,48.25
2018-06-03T01:20:29.835Z,49.75
2018-06-03T01:21:34.037Z,51.58
2018-06-03T01:22:38.233Z,50.83
2018-06-03T01:23:42.781Z,48.25
2018-06-03T01:24:46.966Z,48.13
2018-06-03T01:25:51.164Z,47.95
2018-06-03T01:26:55.407Z,50.05
2018-06-03T01:28:00.121Z,52.30
2018-06-03T01:29:04.343Z,48.68
2018-06-03T01:30:08.553Z,48.00
2018-06-03T01:31:12.963Z,47.50
2018-06-03T01:32:17.150Z,53.25
2018-06-03T01:33:21.375Z,45.17
2018-06-03T01:34:25.670Z,49.27
2018-06-03T01:35:29.854Z,46.77
2018-06-03T01:36:34.157Z,46.92
2018-06-03T01:37:38.445Z,49.18
2018-06-03T01:38:42.641Z,45.70
2018-06-03T01:39:46.835Z,46.60
2018-06-03T01:40:51.096Z,46.60
2018-06-03T01:41:55.276Z,46.35
2018-06-03T01:42:59.506Z,49.80
2018-06-03T01:44:03.757Z,55.63
2018-06-03T01:45:07.940Z,48.63
2018-06-03T01:46:12.140Z,46.85
2018-06-03T01:47:16.328Z,50.12
2018-06-03T01:48:20.648Z,51.90
2018-06-03T01:49:24.877Z,57.43
2018-06-03T01:50:29.415Z,51.95
2018-06-03T01:51:33.659Z,49.25
2018-06-03T01:52:37.916Z,49.63
2018-06-03T01:53:42.662Z,49.13
2018-06-03T01:54:46.964Z,49.42
2018-06-03T01:55:51.172Z,52.45
2018-06-03T01:56:55.345Z,52.15
2018-06-03T01:57:59.535Z,49.00
2018-06-03T01:59:03.777Z,51.55
2018-06-03T02:00:08.030Z,54.05
2018-06-03T02:01:12.218Z,54.20
2018-06-03T02:02:16.422Z,52.95
2018-06-03T02:03:20.613Z,54.90
2018-06-03T02:04:24.823Z,55.60
2018-06-03T02:05:29.123Z,55.35
2018-06-03T02:06:33.376Z,53.92
2018-06-03T02:07:37.553Z,63.38
2018-06-03T02:08:41.788Z,63.75
2018-06-03T02:09:45.961Z,57.67
2018-06-03T02:10:50.203Z,63.40
2018-06-03T02:11:54.385Z,63.38
2018-06-03T02:12:58.583Z,61.88
2018-06-03T02:14:02.776Z,67.00
2018-06-03T02:15:07.114Z,61.60
2018-06-03T02:16:11.609Z,65.80
2018-06-03T02:17:15.775Z,56.75
2018-06-03T02:18:19.963Z,68.47
2018-06-03T02:19:24.352Z,63.75
2018-06-03T02:20:28.540Z,59.08
2018-06-03T02:21:32.793Z,60.90
2018-06-03T02:22:36.979Z,66.72
2018-06-03T02:23:41.376Z,62.58
2018-06-03T02:24:45.951Z,65.47
2018-06-03T02:25:50.130Z,62.05
2018-06-03T02:26:54.367Z,66.40
2018-06-03T02:27:58.532Z,58.60
2018-06-03T02:29:02.741Z,58.08
2018-06-03T02:30:06.950Z,62.88
2018-06-03T02:31:11.116Z,63.85
2018-06-03T02:32:15.460Z,64.35
2018-06-03T02:33:19.631Z,58.28
2018-06-03T02:34:23.839Z,65.45
2018-06-03T02:35:28.072Z,66.05
2018-06-03T02:36:32.276Z,67.65
2018-06-03T02:37:36.496Z,65.47
2018-06-03T02:38:40.730Z,66.02
2018-06-03T02:39:44.919Z,62.27
2018-06-03T02:40:49.084Z,73.50
2018-06-03T02:41:53.277Z,66.67
2018-06-03T02:42:57.517Z,68.40
2018-06-03T02:44:01.724Z,69.70
2018-06-03T02:45:06.217Z,64.17
2018-06-03T02:46:10.411Z,63.00
2018-06-03T02:47:15.004Z,68.95
2018-06-03T02:48:19.317Z,72.20
2018-06-03T02:49:23.496Z,73.22
2018-06-03T02:50:28.467Z,72.35
2018-06-03T02:51:32.725Z,65.35
2018-06-03T02:52:36.951Z,66.47
2018-06-03T02:53:41.184Z,72.50
2018-06-03T02:54:45.362Z,68.50
2018-06-03T02:55:49.541Z,64.27
2018-06-03T02:56:53.758Z,64.27
2018-06-03T02:57:57.954Z,70.40
2018-06-03T02:59:02.184Z,68.37
2018-06-03T03:00:06.417Z,65.85
2018-06-03T03:01:10.668Z,70.22
2018-06-03T03:02:14.875Z,62.62
2018-06-03T03:03:19.078Z,67.42
2018-06-03T03:04:23.279Z,64.55
2018-06-03T03:05:27.499Z,59.95
2018-06-03T03:06:31.725Z,67.80
2018-06-03T03:07:36.055Z,68.52
2018-06-03T03:08:40.376Z,71.35
2018-06-03T03:09:44.557Z,64.87
2018-06-03T03:10:48.747Z,68.02
2018-06-03T03:11:52.917Z,63.95
2018-06-03T03:12:57.149Z,59.60
2018-06-03T03:14:01.340Z,65.72
2018-06-03T03:15:05.707Z,69.47
2018-06-03T03:16:09.870Z,65.72
2018-06-03T03:17:14.062Z,70.65
2018-06-03T03:18:18.273Z,65.45
2018-06-03T03:19:22.462Z,60.50
2018-06-03T03:20:26.680Z,62.13
2018-06-03T03:21:30.907Z,62.85
2018-06-03T03:22:35.108Z,65.30
2018-06-03T03:23:39.339Z,63.58
2018-06-03T03:24:43.520Z,62.00
2018-06-03T03:25:47.989Z,63.02
2018-06-03T03:26:52.185Z,58.35
2018-06-03T03:27:56.413Z,61.10
2018-06-03T03:29:00.591Z,61.45
2018-06-03T03:30:04.860Z,62.03
2018-06-03T03:31:09.114Z,59.05
2018-06-03T03:32:13.302Z,63.65
2018-06-03T03:33:17.487Z,58.60
2018-06-03T03:34:21.729Z,60.48
2018-06-03T03:35:25.948Z,60.08
2018-06-03T03:36:30.101Z,62.83
2018-06-03T03:37:34.296Z,64.42
2018-06-03T03:38:38.520Z,66.85
2018-06-03T03:39:42.829Z,65.32
2018-06-03T03:40:47.033Z,62.20
2018-06-03T03:41:51.236Z,60.08
2018-06-03T03:42:55.641Z,66.28
2018-06-03T03:43:59.830Z,65.65
2018-06-03T03:45:04.039Z,60.50
2018-06-03T03:46:08.223Z,64.95
2018-06-03T03:47:12.598Z,65.55
2018-06-03T03:48:16.875Z,60.80
2018-06-03T03:49:21.136Z,60.67
2018-06-03T03:50:25.392Z,61.88
2018-06-03T03:51:29.575Z,64.90
2018-06-03T03:52:33.837Z,62.03
2018-06-03T03:53:38.028Z,69.32
2018-06-03T03:54:42.304Z,61.02
2018-06-03T03:55:46.527Z,64.60
2018-06-03T03:56:50.760Z,65.90
2018-06-03T03:57:55.027Z,64.27
2018-06-03T03:58:59.292Z,69.27
2018-06-03T04:00:03.541Z,67.17
2018-06-03T04:01:07.736Z,66.00
2018-06-03T04:02:11.925Z,64.07
2018-06-03T04:03:16.408Z,64.50
2018-06-03T04:04:20.635Z,60.88
2018-06-03T04:05:24.834Z,56.65
2018-06-03T04:06:29.072Z,69.53
2018-06-03T04:07:33.582Z,59.75
2018-06-03T04:08:38.043Z,61.00
2018-06-03T04:09:42.634Z,61.13
2018-06-03T04:10:46.858Z,64.47
2018-06-03T04:11:51.040Z,66.35
2018-06-03T04:12:55.244Z,69.75
2018-06-03T04:13:59.456Z,66.75
2018-06-03T04:15:03.686Z,68.42
2018-06-03T04:16:08.302Z,62.43
2018-06-03T04:17:13.909Z,62.62
2018-06-03T04:18:18.093Z,68.60
2018-06-03T04:19:22.341Z,66.82
2018-06-03T04:20:26.800Z,64.62
2018-06-03T04:21:30.989Z,70.15
2018-06-03T04:22:35.244Z,72.08
2018-06-03T04:23:39.488Z,69.80
2018-06-03T04:24:43.709Z,66.85
2018-06-03T04:25:48.208Z,66.28
2018-06-03T04:26:52.428Z,70.32
2018-06-03T04:27:56.631Z,63.92
2018-06-03T04:29:01.051Z,69.07
2018-06-03T04:30:05.313Z,72.12
2018-06-03T04:31:09.532Z,74.50
2018-06-03T04:32:13.788Z,74.97
2018-06-03T04:33:18.152Z,69.07
2018-06-03T04:34:22.380Z,66.42
2018-06-03T04:35:26.604Z,75.45
2018-06-03T04:36:31.592Z,70.87
2018-06-03T04:37:35.783Z,69.55
2018-06-03T04:38:40.046Z,71.25
2018-06-03T04:39:44.260Z,75.92
2018-06-03T04:40:48.521Z,77.78
2018-06-03T04:41:52.805Z,73.07
2018-06-03T04:42:57.107Z,77.58
2018-06-03T04:44:01.423Z,81.53
2018-06-03T04:45:05.644Z,76.60
2018-06-03T04:46:10.552Z,78.35
2018-06-03T04:47:14.816Z,82.53
2018-06-03T04:48:19.010Z,78.33
2018-06-03T04:49:23.188Z,74.05
2018-06-03T04:50:27.934Z,78.45
2018-06-03T04:51:32.168Z,80.55
2018-06-03T04:52:36.401Z,83.50
2018-06-03T04:53:40.883Z,75.87
2018-06-03T04:54:45.120Z,84.92
2018-06-03T04:55:49.331Z,76.25
2018-06-03T04:56:53.563Z,78.60
2018-06-03T04:57:57.891Z,80.30
2018-06-03T04:59:02.145Z,82.22
2018-06-03T05:00:06.401Z,85.65
2018-06-03T05:01:10.601Z,77.80
2018-06-03T05:02:14.844Z,86.70
2018-06-03T05:03:19.049Z,77.92
2018-06-03T05:04:23.245Z,97.75
2018-06-03T05:05:27.407Z,83.22
2018-06-03T05:06:31.658Z,83.30
2018-06-03T05:07:35.875Z,87.97
2018-06-03T05:08:40.429Z,79.72
2018-06-03T05:09:44.643Z,82.22
2018-06-03T05:10:48.877Z,75.85
2018-06-03T05:11:53.208Z,78.02
2018-06-03T05:12:57.420Z,77.65
2018-06-03T05:14:01.600Z,79.95
2018-06-03T05:15:06.174Z,79.45
2018-06-03T05:16:10.468Z,76.97
2018-06-03T05:17:14.661Z,72.53
2018-06-03T05:18:18.969Z,75.87
2018-06-03T05:19:23.188Z,79.50
2018-06-03T05:20:27.391Z,74.03
2018-06-03T05:21:31.599Z,67.05
2018-06-03T05:22:35.839Z,71.42
2018-06-03T05:23:40.022Z,71.25
2018-06-03T05:24:44.233Z,65.62
2018-06-03T05:25:48.983Z,67.27
2018-06-03T05:26:53.191Z,70.57
2018-06-03T05:27:57.563Z,64.47
2018-06-03T05:29:01.804Z,69.15
2018-06-03T05:30:06.145Z,69.45
2018-06-03T05:31:10.452Z,69.12
2018-06-03T05:32:14.860Z,66.77
2018-06-03T05:33:19.188Z,67.75
2018-06-03T05:34:23.551Z,68.30
2018-06-03T05:35:28.010Z,72.22
2018-06-03T05:36:32.215Z,69.17
2018-06-03T05:37:36.427Z,65.57
2018-06-03T05:38:40.655Z,73.75
2018-06-03T05:39:44.960Z,71.95
2018-06-03T05:40:49.313Z,66.47
2018-06-03T05:41:53.596Z,71.62
2018-06-03T05:42:57.797Z,72.00
2018-06-03T05:44:02.008Z,66.90
2018-06-03T05:45:06.221Z,66.20
2018-06-03T05:46:10.424Z,67.97
2018-06-03T05:47:14.602Z,61.48
2018-06-03T05:48:18.824Z,66.30
2018-06-03T05:49:23.061Z,68.78
2018-06-03T05:50:27.299Z,78.15
2018-06-03T05:51:31.471Z,66.57
2018-06-03T05:52:35.755Z,63.60
2018-06-03T05:53:40.147Z,77.60
2018-06-03T05:54:44.324Z,63.28
2018-06-03T05:55:48.664Z,70.72
2018-06-03T05:56:52.847Z,68.10
2018-06-03T05:57:57.159Z,67.40
2018-06-03T05:59:01.417Z,66.57
2018-06-03T06:00:05.776Z,69.72
2018-06-03T06:01:10.019Z,76.60
2018-06-03T06:02:14.287Z,66.15
2018-06-03T06:03:18.501Z,69.50
2018-06-03T06:04:22.669Z,68.07
2018-06-03T06:05:27.172Z,66.17
2018-06-03T06:06:31.425Z,60.80
2018-06-03T06:07:35.652Z,65.97
2018-06-03T06:08:39.887Z,77.70
2018-06-03T06:09:44.107Z,64.10
2018-06-03T06:10:48.374Z,66.75
2018-06-03T06:11:52.647Z,73.85
2018-06-03T06:12:56.851Z,66.12
2018-06-03T06:14:01.035Z,66.15
2018-06-03T06:15:05.479Z,72.35
2018-06-03T06:16:09.692Z,67.10
2018-06-03T06:17:14.240Z,74.10
2018-06-03T06:18:18.443Z,62.48
2018-06-03T06:19:22.679Z,70.52
2018-06-03T06:20:26.872Z,74.62
2018-06-03T06:21:31.093Z,64.05
2018-06-03T06:22:35.311Z,69.15
2018-06-03T06:23:39.500Z,69.87
2018-06-03T06:24:43.695Z,75.40
2018-06-03T06:25:48.269Z,73.20
2018-06-03T06:26:52.507Z,75.60
2018-06-03T06:27:56.743Z,70.83
2018-06-03T06:29:00.950Z,76.72
2018-06-03T06:30:05.896Z,71.87
2018-06-03T06:31:10.132Z,71.80
2018-06-03T06:32:14.366Z,74.50
2018-06-03T06:33:18.834Z,69.80
2018-06-03T06:34:23.011Z,65.70
2018-06-03T06:35:27.297Z,81.40
2018-06-03T06:36:31.507Z,63.25
2018-06-03T06:37:35.717Z,67.00
2018-06-03T06:38:39.957Z,74.03
2018-06-03T06:39:44.123Z,68.12
2018-06-03T06:40:48.409Z,75.37
2018-06-03T06:41:52.564Z,68.22
2018-06-03T06:42:56.763Z,66.07
2018-06-03T06:44:00.995Z,78.42
2018-06-03T06:45:05.222Z,72.20
2018-06-03T06:46:09.424Z,76.33
2018-06-03T06:47:13.614Z,73.02
2018-06-03T06:48:17.822Z,82.95
2018-06-03T06:49:22.030Z,72.87
2018-06-03T06:50:26.256Z,67.65
2018-06-03T06:51:30.451Z,72.12
2018-06-03T06:52:34.696Z,73.70
2018-06-03T06:53:38.893Z,71.62
2018-06-03T06:54:43.157Z,72.62
2018-06-03T06:55:47.371Z,69.05
2018-06-03T06:56:51.605Z,70.72
2018-06-03T06:57:55.849Z,69.35
2018-06-03T06:59:00.055Z,73.78
2018-06-03T07:00:04.356Z,67.92
2018-06-03T07:01:08.551Z,74.72
2018-06-03T07:02:12.795Z,73.47
2018-06-03T07:03:17.021Z,70.28
2018-06-03T07:04:21.279Z,76.72
2018-06-03T07:05:25.534Z,75.72
2018-06-03T07:06:29.738Z,76.12
2018-06-03T07:07:33.946Z,64.37
2018-06-03T07:08:38.393Z,73.17
2018-06-03T07:09:42.659Z,72.42
2018-06-03T07:10:46.927Z,70.80
2018-06-03T07:11:52.123Z,69.32
2018-06-03T07:12:56.449Z,61.77
2018-06-03T07:14:00.639Z,57.75
2018-06-03T07:15:04.901Z,60.78
2018-06-03T07:16:09.152Z,57.23
2018-06-03T07:17:13.331Z,73.60
2018-06-03T07:18:17.520Z,66.40
2018-06-03T07:19:21.744Z,63.20
2018-06-03T07:20:25.927Z,71.95
2018-06-03T07:21:30.181Z,62.17
2018-06-03T07:22:34.444Z,67.03
2018-06-03T07:23:38.690Z,70.03
2018-06-03T07:24:44.963Z,71.33
2018-06-03T07:25:49.236Z,69.75
2018-06-03T07:26:53.524Z,66.55
2018-06-03T07:27:57.752Z,65.10
2018-06-03T07:29:01.931Z,75.47
2018-06-03T07:30:06.279Z,69.30
2018-06-03T07:31:10.576Z,71.80
2018-06-03T07:32:14.939Z,70.37
2018-06-03T07:33:19.189Z,75.52
2018-06-03T07:34:23.396Z,75.35
2018-06-03T07:35:27.886Z,67.40
2018-06-03T07:36:32.099Z,86.87
2018-06-03T07:37:36.376Z,71.82
2018-06-03T07:38:40.923Z,71.42
2018-06-03T07:39:45.156Z,69.25
2018-06-03T07:40:49.343Z,77.53
2018-06-03T07:41:53.743Z,71.20
2018-06-03T07:42:58.104Z,75.15
2018-06-03T07:44:02.341Z,71.42
2018-06-03T07:45:06.635Z,71.37
2018-06-03T07:46:10.923Z,70.67
2018-06-03T07:47:15.195Z,63.42
2018-06-03T07:48:19.408Z,64.00
2018-06-03T07:49:23.670Z,64.75
2018-06-03T07:50:28.511Z,73.02
2018-06-03T07:51:32.651Z,66.82
2018-06-03T07:52:36.901Z,70.97
2018-06-03T07:53:41.164Z,66.10
2018-06-03T07:54:45.362Z,64.82
2018-06-03T07:55:49.551Z,69.85
2018-06-03T07:56:53.787Z,67.62
2018-06-03T07:57:57.981Z,68.17
2018-06-03T07:59:02.221Z,64.67
2018-06-03T08:00:06.486Z,73.40
2018-06-03T08:01:10.685Z,68.45
2018-06-03T08:02:13.871Z,74.45
2018-06-03T08:03:17.911Z,74.62
2018-06-03T08:04:22.159Z,75.52
2018-06-03T08:05:26.609Z,78.45
2018-06-03T08:06:30.867Z,74.75
2018-06-03T08:07:35.069Z,75.37
2018-06-03T08:08:39.295Z,79.10
2018-06-03T08:09:43.823Z,71.07
2018-06-03T08:10:48.058Z,71.70
2018-06-03T08:11:52.366Z,73.83
2018-06-03T08:12:56.555Z,78.10
2018-06-03T08:14:00.742Z,73.00
2018-06-03T08:15:05.033Z,70.90
2018-06-03T08:16:09.257Z,80.77
2018-06-03T08:17:13.450Z,78.25
2018-06-03T08:18:17.658Z,78.35
2018-06-03T08:19:21.891Z,81.60
2018-06-03T08:20:26.485Z,72.60
2018-06-03T08:21:30.707Z,76.73
2018-06-03T08:22:34.927Z,77.58
2018-06-03T08:23:39.135Z,84.55
2018-06-03T08:24:43.323Z,84.52
2018-06-03T08:25:47.556Z,86.57
2018-06-03T08:26:52.020Z,83.27
2018-06-03T08:27:56.212Z,70.65
2018-06-03T08:29:00.448Z,79.65
2018-06-03T08:30:04.870Z,76.75
2018-06-03T08:31:09.160Z,79.03
2018-06-03T08:32:13.549Z,80.20
2018-06-03T08:33:17.805Z,74.12
2018-06-03T08:34:22.013Z,75.30
2018-06-03T08:35:26.181Z,79.70
2018-06-03T08:36:30.382Z,80.85
2018-06-03T08:37:34.607Z,75.87
2018-06-03T08:38:38.802Z,75.35
2018-06-03T08:39:42.983Z,92.97
2018-06-03T08:40:47.307Z,79.12
2018-06-03T08:41:51.549Z,92.95
2018-06-03T08:42:55.772Z,86.47
2018-06-03T08:44:00.032Z,77.65
2018-06-03T08:45:04.257Z,63.90
2018-06-03T08:46:08.468Z,69.47
2018-06-03T08:47:12.873Z,66.67
2018-06-03T08:48:17.052Z,57.10
2018-06-03T08:49:21.228Z,62.53
2018-06-03T08:50:25.461Z,62.53
2018-06-03T08:51:29.657Z,67.78
2018-06-03T08:52:33.871Z,64.32
2018-06-03T08:53:38.302Z,67.58
2018-06-03T08:54:42.579Z,66.82
2018-06-03T08:55:46.784Z,59.00
2018-06-03T08:56:50.987Z,59.85
2018-06-03T08:57:55.207Z,56.33
2018-06-03T08:58:59.409Z,62.35
2018-06-03T09:00:03.673Z,55.52
2018-06-03T09:01:08.304Z,56.33
2018-06-03T09:02:12.743Z,54.63
2018-06-03T09:03:16.979Z,58.30
2018-06-03T09:04:21.176Z,54.48
2018-06-03T09:05:25.438Z,57.25
2018-06-03T09:06:29.608Z,65.70
2018-06-03T09:07:34.344Z,58.60
2018-06-03T09:08:38.635Z,62.25
2018-06-03T09:09:42.900Z,68.53
2018-06-03T09:10:47.122Z,63.95
2018-06-03T09:11:51.329Z,60.17
2018-06-03T09:12:55.551Z,61.23
2018-06-03T09:13:59.812Z,57.23
2018-06-03T09:15:04.091Z,66.10
2018-06-03T09:16:08.328Z,65.97
2018-06-03T09:17:12.557Z,63.68
2018-06-03T09:18:16.765Z,56.05
2018-06-03T09:19:21.176Z,57.00
2018-06-03T09:20:25.363Z,57.67
2018-06-03T09:21:29.556Z,61.42
2018-06-03T09:22:33.766Z,56.47
2018-06-03T09:23:37.975Z,60.43
2018-06-03T09:24:42.364Z,63.87
2018-06-03T09:25:46.549Z,68.30
2018-06-03T09:26:50.980Z,68.50
2018-06-03T09:27:55.212Z,62.17
2018-06-03T09:28:59.416Z,60.05
2018-06-03T09:30:03.818Z,59.93
2018-06-03T09:31:08.243Z,63.40
2018-06-03T09:32:12.515Z,53.73
2018-06-03T09:33:16.715Z,52.30
2018-06-03T09:34:20.938Z,58.87
2018-06-03T09:35:25.648Z,55.23
2018-06-03T09:36:29.917Z,55.98
2018-06-03T09:37:34.113Z,62.70
2018-06-03T09:38:38.329Z,67.70
2018-06-03T09:39:42.625Z,57.60
2018-06-03T09:40:46.848Z,62.30
2018-06-03T09:41:51.088Z,64.07
2018-06-03T09:42:55.414Z,63.10
2018-06-03T09:43:59.624Z,53.43
2018-06-03T09:45:03.903Z,60.73
2018-06-03T09:46:08.245Z,54.00
2018-06-03T09:47:12.552Z,48.43
2018-06-03T09:48:16.820Z,46.33
2018-06-03T09:49:21.091Z,51.47
2018-06-03T09:50:25.486Z,53.03
2018-06-03T09:51:29.880Z,49.90
2018-06-03T09:52:34.115Z,50.60
2018-06-03T09:53:38.320Z,45.53
2018-06-03T09:54:42.527Z,55.75
2018-06-03T09:55:46.781Z,54.27
2018-06-03T09:56:51.080Z,53.53
2018-06-03T09:57:55.281Z,54.43
2018-06-03T09:58:59.519Z,47.50
2018-06-03T10:00:04.024Z,55.33
2018-06-03T10:01:08.224Z,44.50
2018-06-03T10:02:12.510Z,50.50
2018-06-03T10:03:16.725Z,51.23
2018-06-03T10:04:20.958Z,51.48
2018-06-03T10:05:25.159Z,60.77
2018-06-03T10:06:29.365Z,56.13
2018-06-03T10:07:33.680Z,58.50
2018-06-03T10:08:37.909Z,52.10
2018-06-03T10:09:42.103Z,49.13
2018-06-03T10:10:46.313Z,60.25
2018-06-03T10:11:50.701Z,52.00
2018-06-03T10:12:54.954Z,61.97
2018-06-03T10:13:59.155Z,60.35
2018-06-03T10:15:03.421Z,70.77
2018-06-03T10:16:07.724Z,66.10
2018-06-03T10:17:11.984Z,64.57
2018-06-03T10:18:16.246Z,60.50
2018-06-03T10:19:20.447Z,59.03
2018-06-03T10:20:24.726Z,61.23
2018-06-03T10:21:29.099Z,57.77
2018-06-03T10:22:33.349Z,58.47
2018-06-03T10:23:37.599Z,56.87
2018-06-03T10:24:41.832Z,57.90
2018-06-03T10:25:46.062Z,67.93
2018-06-03T10:26:50.391Z,64.57
2018-06-03T10:27:54.932Z,67.07
2018-06-03T10:28:59.237Z,57.17
2018-06-03T10:30:03.752Z,55.27
2018-06-03T10:31:08.013Z,61.57
2018-06-03T10:32:12.312Z,53.20
2018-06-03T10:33:16.545Z,52.07
2018-06-03T10:34:20.780Z,54.55
2018-06-03T10:35:24.997Z,56.00
2018-06-03T10:36:29.196Z,51.80
2018-06-03T10:37:33.443Z,58.23
2018-06-03T10:38:37.685Z,48.37
2018-06-03T10:39:41.958Z,48.27
2018-06-03T10:40:46.212Z,60.20
2018-06-03T10:41:50.444Z,56.80
2018-06-03T10:42:54.873Z,64.03
2018-06-03T10:43:59.314Z,54.50
2018-06-03T10:45:03.752Z,50.43
2018-06-03T10:46:08.032Z,54.40
2018-06-03T10:47:12.270Z,54.00
2018-06-03T10:48:16.548Z,50.90
2018-06-03T10:49:20.747Z,49.40
2018-06-03T10:50:24.964Z,44.67
2018-06-03T10:51:29.196Z,47.93
2018-06-03T10:52:33.438Z,43.60
2018-06-03T10:53:37.663Z,53.80
2018-06-03T10:54:41.880Z,49.07
2018-06-03T10:55:46.176Z,55.07
2018-06-03T10:56:50.552Z,47.93
2018-06-03T10:57:54.787Z,48.63
2018-06-03T10:58:59.144Z,52.30
2018-06-03T11:00:03.449Z,51.07
2018-06-03T11:01:07.676Z,52.70
2018-06-03T11:02:11.960Z,52.83
2018-06-03T11:03:16.204Z,47.80
2018-06-03T11:04:20.476Z,49.27
2018-06-03T11:05:24.615Z,45.73
2018-06-03T11:06:28.821Z,53.43
2018-06-03T11:07:33.028Z,49.10
2018-06-03T11:08:37.351Z,51.57
2018-06-03T11:09:41.546Z,46.45
2018-06-03T11:10:45.728Z,53.03
2018-06-03T11:11:49.950Z,43.90
2018-06-03T11:12:54.344Z,46.63
2018-06-03T11:13:58.549Z,45.87
2018-06-03T11:15:02.788Z,40.40
2018-06-03T11:16:06.965Z,40.13
2018-06-03T11:17:11.275Z,34.50
2018-06-03T11:18:15.503Z,31.40
2018-06-03T11:19:19.940Z,32.93
2018-06-03T11:20:24.143Z,35.37
2018-06-03T11:21:28.368Z,35.73
2018-06-03T11:22:32.657Z,33.93
2018-06-03T11:23:36.864Z,35.23
2018-06-03T11:24:41.089Z,39.57
2018-06-03T11:25:51.738Z,42.70
2018-06-03T11:26:55.929Z,40.07
2018-06-03T11:28:00.511Z,38.27
2018-06-03T11:29:04.798Z,35.40
2018-06-03T11:30:09.027Z,34.77
2018-06-03T11:31:13.260Z,41.20
2018-06-03T11:32:17.491Z,42.20
2018-06-03T11:33:21.828Z,46.93
2018-06-03T11:34:26.040Z,50.80
2018-06-03T11:35:30.214Z,53.17
2018-06-03T11:36:34.393Z,49.87
2018-06-03T11:37:38.598Z,53.47
2018-06-03T11:38:42.832Z,60.80
2018-06-03T11:39:47.013Z,49.20
2018-06-03T11:40:51.360Z,51.20
2018-06-03T11:41:55.836Z,58.63
2018-06-03T11:43:00.029Z,57.97
2018-06-03T11:44:04.430Z,57.13
2018-06-03T11:45:08.631Z,50.93
2018-06-03T11:46:19.420Z,57.67
2018-06-03T11:47:23.652Z,54.80
2018-06-03T11:48:27.868Z,48.20
2018-06-03T11:49:32.071Z,57.73
2018-06-03T11:50:36.277Z,48.70
2018-06-03T11:51:40.476Z,48.03
2018-06-03T11:52:44.777Z,52.63
2018-06-03T11:53:48.980Z,50.63
2018-06-03T11:54:53.215Z,51.50
2018-06-03T11:55:57.385Z,47.53
2018-06-03T11:57:02.830Z,44.57
2018-06-03T11:58:43.270Z,44.90
2018-06-03T11:59:47.474Z,48.17
2018-06-03T12:00:51.683Z,44.50
2018-06-03T12:01:55.925Z,48.47
2018-06-03T12:03:00.500Z,41.30
2018-06-03T12:04:05.199Z,48.10
2018-06-03T12:05:09.444Z,45.97
2018-06-03T12:06:13.705Z,46.00
2018-06-03T12:07:17.914Z,45.83
2018-06-03T12:08:22.124Z,48.00
2018-06-03T12:09:26.539Z,44.10
2018-06-03T12:10:30.727Z,46.70
2018-06-03T12:11:35.032Z,38.93
2018-06-03T12:12:39.226Z,45.83
2018-06-03T12:13:43.428Z,38.30
2018-06-03T12:14:47.631Z,37.10
2018-06-03T12:15:51.860Z,38.80
2018-06-03T12:16:56.144Z,44.17
2018-06-03T12:18:00.341Z,44.33
2018-06-03T12:19:04.557Z,46.10
2018-06-03T12:20:08.735Z,42.97
2018-06-03T12:21:12.924Z,49.87
2018-06-03T12:22:17.132Z,51.13
2018-06-03T12:23:21.315Z,49.37
2018-06-03T12:24:25.536Z,42.97
2018-06-03T12:25:29.752Z,48.60
2018-06-03T12:26:34.176Z,43.30
2018-06-03T12:27:38.404Z,42.50
2018-06-03T12:28:43.026Z,49.30
2018-06-03T12:29:47.177Z,44.13
2018-06-03T12:30:51.376Z,45.43
2018-06-03T12:31:55.583Z,51.20
2018-06-03T12:32:59.777Z,46.20
2018-06-03T12:34:03.948Z,54.83
2018-06-03T12:35:08.120Z,53.93
2018-06-03T12:36:12.391Z,45.33
2018-06-03T12:37:16.561Z,46.17
2018-06-03T12:38:20.790Z,49.47
2018-06-03T12:39:25.113Z,50.60
2018-06-03T12:40:29.381Z,46.67
2018-06-03T12:41:33.587Z,48.40
2018-06-03T12:42:37.848Z,46.27
2018-06-03T12:43:42.063Z,43.53
2018-06-03T12:44:46.311Z,45.07
2018-06-03T12:45:50.708Z,45.77
2018-06-03T12:46:54.982Z,48.90
2018-06-03T12:47:59.319Z,43.63
2018-06-03T12:49:03.660Z,48.10
2018-06-03T12:50:07.896Z,45.30
2018-06-03T12:51:12.068Z,42.57
2018-06-03T12:52:16.262Z,44.93
2018-06-03T12:53:20.428Z,48.73
2018-06-03T12:54:24.717Z,42.27
2018-06-03T12:55:29.162Z,46.67
2018-06-03T12:56:33.443Z,42.20
2018-06-03T12:57:37.655Z,42.00
2018-06-03T12:58:41.906Z,45.53
2018-06-03T12:59:46.129Z,45.97
2018-06-03T13:00:50.332Z,46.20
2018-06-03T13:01:54.583Z,46.77
2018-06-03T13:02:58.919Z,45.90
2018-06-03T13:04:03.235Z,44.50
2018-06-03T13:05:07.459Z,45.80
2018-06-03T13:06:11.672Z,48.23
2018-06-03T13:07:15.884Z,40.33
2018-06-03T13:08:20.154Z,43.03
2018-06-03T13:09:24.378Z,43.70
2018-06-03T13:10:28.608Z,41.20
2018-06-03T13:11:33.061Z,43.80
2018-06-03T13:12:37.307Z,40.70
2018-06-03T13:13:41.521Z,42.93
2018-06-03T13:14:45.717Z,48.83
2018-06-03T13:15:50.018Z,47.63
2018-06-03T13:16:54.447Z,41.43
2018-06-03T13:17:58.681Z,42.83
2018-06-03T13:19:02.904Z,42.03
2018-06-03T13:20:07.311Z,41.47
2018-06-03T13:21:11.524Z,39.37
2018-06-03T13:22:16.078Z,42.00
2018-06-03T13:23:20.324Z,48.27
2018-06-03T13:24:24.486Z,39.00
2018-06-03T13:25:28.722Z,40.07
2018-06-03T13:26:33.016Z,37.73
2018-06-03T13:27:37.467Z,38.90
2018-06-03T13:28:41.694Z,37.50
2018-06-03T13:29:45.938Z,39.10
2018-06-03T13:30:50.192Z,38.07
2018-06-03T13:31:54.493Z,39.60
2018-06-03T13:32:58.746Z,42.20
2018-06-03T13:34:02.980Z,40.03
2018-06-03T13:35:07.228Z,49.40
2018-06-03T13:36:11.480Z,41.80
2018-06-03T13:37:15.824Z,44.77
2018-06-03T13:38:20.211Z,42.93
2018-06-03T13:39:24.433Z,43.57
2018-06-03T13:40:28.648Z,43.67
2018-06-03T13:41:32.824Z,37.10
2018-06-03T13:42:37.237Z,52.93
2018-06-03T13:43:41.442Z,48.10
2018-06-03T13:44:45.619Z,39.40
2018-06-03T13:45:49.852Z,41.97
2018-06-03T13:46:54.037Z,39.13
2018-06-03T13:47:58.280Z,43.27
2018-06-03T13:49:02.531Z,35.63